createdAt,value
2023-05-16T00:00:53.290Z,99358.31
2023-05-16T00:03:20.443Z,99352.16
2023-05-16T00:05:48.094Z,99347.31
2023-05-16T00:08:14.612Z,99345.31
2023-05-16T00:10:41.305Z,99337.56
2023-05-16T00:13:07.818Z,99345.91
2023-05-16T00:15:34.715Z,99348.44
2023-05-16T00:18:01.345Z,99352.13
2023-05-16T00:20:29.027Z,99354.06
2023-05-16T00:22:55.982Z,99349.47
2023-05-16T00:25:23.603Z,99347.66
2023-05-16T00:27:50.154Z,99345.25
2023-05-16T00:30:16.856Z,99346.13
2023-05-16T00:32:43.874Z,99342.88
2023-05-16T00:35:11.646Z,99353.03
2023-05-16T00:37:38.771Z,99347.72
2023-05-16T00:40:05.903Z,99354.84
2023-05-16T00:42:32.409Z,99359.22
2023-05-16T00:44:59.151Z,99349.69
2023-05-16T00:47:25.849Z,99350.44
2023-05-16T00:49:52.422Z,99349.75
2023-05-16T00:52:18.963Z,99345.97
2023-05-16T00:54:45.470Z,99355.06
2023-05-16T00:57:12.089Z,99351.16
2023-05-16T00:59:38.697Z,99335.75
2023-05-16T01:02:05.417Z,99353.69
2023-05-16T01:04:32.413Z,99348.28
2023-05-16T01:06:58.921Z,99352.97
2023-05-16T01:09:25.584Z,99353.31
2023-05-16T01:11:59.760Z,99357.91
2023-05-16T01:14:56.697Z,99360.25
2023-05-16T01:17:57.851Z,99363.44
2023-05-16T01:20:48.297Z,99367.34
2023-05-16T01:23:17.947Z,99358.22
2023-05-16T01:26:06.494Z,99369.25
2023-05-16T01:28:33.136Z,99361.59
2023-05-16T01:31:00.634Z,99365.84
2023-05-16T01:33:27.358Z,99369.44
2023-05-16T01:36:01.040Z,99375.19
2023-05-16T01:38:31.630Z,99382.41
2023-05-16T01:41:21.967Z,99382.78
2023-05-16T01:43:49.896Z,99386.28
2023-05-16T01:46:21.314Z,99387.50
2023-05-16T01:48:53.517Z,99390.38
2023-05-16T01:51:25.105Z,99386.19
2023-05-16T01:53:52.523Z,99390.38
2023-05-16T01:56:19.968Z,99395.44
2023-05-16T01:58:48.361Z,99396.44
2023-05-16T02:01:14.962Z,99393.75
2023-05-16T02:03:41.631Z,99387.69
2023-05-16T02:06:08.399Z,99397.13
2023-05-16T02:08:35.121Z,99387.72
2023-05-16T02:11:01.636Z,99392.91
2023-05-16T02:13:28.082Z,99388.50
2023-05-16T02:15:54.564Z,99393.50
2023-05-16T02:18:23.518Z,99395.81
2023-05-16T02:20:50.960Z,99399.78
2023-05-16T02:23:17.468Z,99406.22
2023-05-16T02:25:43.954Z,99410.13
2023-05-16T02:28:10.714Z,99400.22
2023-05-16T02:30:37.175Z,99402.94
2023-05-16T02:33:03.697Z,99414.31
2023-05-16T02:35:30.259Z,99389.72
2023-05-16T02:37:57.111Z,99395.81
2023-05-16T02:40:23.555Z,99404.59
2023-05-16T02:42:50.007Z,99402.50
2023-05-16T02:45:16.563Z,99403.50
2023-05-16T02:47:43.116Z,99403.56
2023-05-16T02:50:09.850Z,99399.44
2023-05-16T02:52:36.404Z,99400.66
2023-05-16T02:57:32.681Z,99406.00
2023-05-16T02:59:59.342Z,99403.94
2023-05-16T03:02:26.318Z,99416.50
2023-05-16T03:04:52.928Z,99416.75
2023-05-16T03:07:19.488Z,99407.41
2023-05-16T03:09:46.003Z,99410.78
2023-05-16T03:12:12.534Z,99418.44
2023-05-16T03:14:39.034Z,99410.31
2023-05-16T03:17:05.858Z,99417.91
2023-05-16T03:19:32.333Z,99417.91
2023-05-16T03:21:58.845Z,99416.78
2023-05-16T03:24:25.325Z,99416.44
2023-05-16T03:26:52.163Z,99414.91
2023-05-16T03:29:18.746Z,99421.31
2023-05-16T03:31:45.474Z,99415.50
2023-05-16T03:34:12.085Z,99420.63
2023-05-16T03:36:39.815Z,99412.19
2023-05-16T03:39:06.326Z,99424.69
2023-05-16T03:41:33.046Z,99422.84
2023-05-16T03:43:59.517Z,99424.19
2023-05-16T03:46:26.556Z,99430.06
2023-05-16T03:48:53.150Z,99430.41
2023-05-16T03:51:19.664Z,99422.94
2023-05-16T03:53:46.235Z,99423.97
2023-05-16T03:56:12.843Z,99420.88
2023-05-16T03:58:39.292Z,99430.41
2023-05-16T04:01:06.138Z,99425.47
2023-05-16T04:03:33.601Z,99435.13
2023-05-16T04:06:00.256Z,99433.22
2023-05-16T04:08:26.909Z,99427.28
2023-05-16T04:10:53.477Z,99422.63
2023-05-16T04:13:20.086Z,99415.88
2023-05-16T04:15:46.692Z,99438.88
2023-05-16T04:18:13.506Z,99437.59
2023-05-16T04:20:40.040Z,99443.69
2023-05-16T04:23:06.524Z,99445.19
2023-05-16T04:25:33.282Z,99437.69
2023-05-16T04:27:59.740Z,99447.47
2023-05-16T04:30:26.389Z,99442.13
2023-05-16T04:32:52.923Z,99436.13
2023-05-16T04:35:19.455Z,99435.94
2023-05-16T04:37:45.978Z,99445.91
2023-05-16T04:40:13.126Z,99433.81
2023-05-16T04:42:39.660Z,99454.03
2023-05-16T04:45:06.817Z,99455.00
2023-05-16T04:47:33.672Z,99452.56
2023-05-16T04:50:00.700Z,99452.50
2023-05-16T04:52:27.240Z,99454.25
2023-05-16T04:54:53.736Z,99452.13
2023-05-16T04:57:20.244Z,99462.03
2023-05-16T04:59:46.847Z,99458.84
2023-05-16T05:02:13.417Z,99466.28
2023-05-16T05:04:40.384Z,99453.50
2023-05-16T05:07:07.301Z,99473.09
2023-05-16T05:09:33.745Z,99465.44
2023-05-16T05:12:00.217Z,99468.69
2023-05-16T05:14:26.857Z,99456.34
2023-05-16T05:16:53.386Z,99464.97
2023-05-16T05:19:20.395Z,99472.31
2023-05-16T05:21:46.919Z,99478.31
2023-05-16T05:24:13.565Z,99477.47
2023-05-16T05:26:40.064Z,99477.75
2023-05-16T05:29:06.639Z,99472.41
2023-05-16T05:31:36.314Z,99478.13
2023-05-16T05:34:03.456Z,99482.59
2023-05-16T05:36:30.900Z,99488.41
2023-05-16T05:38:57.623Z,99484.41
2023-05-16T05:41:24.164Z,99490.50
2023-05-16T05:43:51.088Z,99495.81
2023-05-16T05:46:17.646Z,99504.19
2023-05-16T05:48:44.213Z,99509.44
2023-05-16T05:51:11.056Z,99496.84
2023-05-16T05:53:37.592Z,99515.53
2023-05-16T05:56:04.180Z,99525.09
2023-05-16T05:58:30.737Z,99533.59
2023-05-16T06:00:57.260Z,99530.88
2023-05-16T06:03:23.767Z,99534.03
2023-05-16T06:05:50.751Z,99548.31
2023-05-16T06:08:17.287Z,99552.59
2023-05-16T06:10:43.783Z,99552.78
2023-05-16T06:13:10.522Z,99561.38
2023-05-16T06:15:37.209Z,99558.41
2023-05-16T06:18:03.893Z,99567.94
2023-05-16T06:20:30.507Z,99577.59
2023-05-16T06:22:57.092Z,99595.53
2023-05-16T06:25:23.618Z,99596.94
2023-05-16T06:27:50.233Z,99609.09
2023-05-16T06:30:16.776Z,99597.06
2023-05-16T06:32:43.746Z,99601.09
2023-05-16T06:35:10.531Z,99594.47
2023-05-16T06:37:37.086Z,99618.34
2023-05-16T06:40:03.796Z,99612.34
2023-05-16T06:42:30.494Z,99617.22
2023-05-16T06:44:56.994Z,99616.56
2023-05-16T06:47:23.500Z,99620.97
2023-05-16T06:49:50.910Z,99626.63
2023-05-16T06:52:17.599Z,99623.88
2023-05-16T06:54:44.218Z,99634.06
2023-05-16T06:57:10.944Z,99627.75
2023-05-16T06:59:37.428Z,99628.25
2023-05-16T07:02:04.084Z,99645.22
2023-05-16T07:04:30.614Z,99646.72
2023-05-16T07:06:57.347Z,99659.94
2023-05-16T07:09:23.880Z,99649.56
2023-05-16T07:11:50.493Z,99652.81
2023-05-16T07:14:17.029Z,99668.28
2023-05-16T07:16:44.149Z,99659.66
2023-05-16T07:19:10.812Z,99672.88
2023-05-16T07:21:37.328Z,99665.81
2023-05-16T07:24:04.159Z,99677.09
2023-05-16T07:26:30.688Z,99675.47
2023-05-16T07:28:58.101Z,99686.78
2023-05-16T07:31:24.731Z,99680.31
2023-05-16T07:33:51.467Z,99686.81
2023-05-16T07:36:18.117Z,99702.75
2023-05-16T07:38:45.120Z,99697.69
2023-05-16T07:41:11.946Z,99697.28
2023-05-16T07:43:38.522Z,99697.88
2023-05-16T07:46:05.274Z,99703.28
2023-05-16T07:48:31.903Z,99719.44
2023-05-16T07:50:58.396Z,99715.34
2023-05-16T07:53:24.942Z,99721.09
2023-05-16T07:55:51.663Z,99727.00
2023-05-16T07:58:18.253Z,99732.25
2023-05-16T08:00:44.778Z,99730.09
2023-05-16T08:03:11.481Z,99727.72
2023-05-16T08:05:38.210Z,99725.03
2023-05-16T08:08:04.867Z,99733.84
2023-05-16T08:10:31.436Z,99733.22
2023-05-16T08:12:57.968Z,99733.09
2023-05-16T08:15:26.038Z,99732.53
2023-05-16T08:17:54.843Z,99734.69
2023-05-16T08:20:21.431Z,99734.69
2023-05-16T08:22:48.098Z,99732.63
2023-05-16T08:25:14.768Z,99737.88
2023-05-16T08:27:41.405Z,99736.47
2023-05-16T08:30:09.741Z,99730.50
2023-05-16T08:32:37.338Z,99733.84
2023-05-16T08:35:04.063Z,99734.72
2023-05-16T08:37:30.743Z,99738.63
2023-05-16T08:39:58.474Z,99726.94
2023-05-16T08:42:25.034Z,99722.38
2023-05-16T08:44:51.656Z,99727.19
2023-05-16T08:47:19.347Z,99726.38
2023-05-16T08:49:48.197Z,99746.97
2023-05-16T08:52:19.043Z,99737.50
2023-05-16T08:54:50.304Z,99738.53
2023-05-16T08:57:22.050Z,99734.63
2023-05-16T08:59:48.876Z,99744.94
2023-05-16T09:02:15.717Z,99743.59
2023-05-16T09:04:43.331Z,99742.28
2023-05-16T09:07:09.949Z,99750.09
2023-05-16T09:09:36.444Z,99754.09
2023-05-16T09:12:03.149Z,99746.78
2023-05-16T09:14:29.717Z,99745.88
2023-05-16T09:17:06.786Z,99742.16
2023-05-16T09:19:40.967Z,99747.47
2023-05-16T09:22:10.617Z,99747.78
2023-05-16T09:24:44.333Z,99757.13
2023-05-16T09:27:12.646Z,99760.84
2023-05-16T09:29:42.833Z,99768.25
2023-05-16T09:32:14.440Z,99781.38
2023-05-16T09:34:49.292Z,99791.72
2023-05-16T09:37:16.383Z,99782.72
2023-05-16T09:39:47.912Z,99785.00
2023-05-16T09:42:15.746Z,99792.50
2023-05-16T09:44:47.468Z,99801.50
2023-05-16T09:47:16.578Z,99804.03
2023-05-16T09:49:45.049Z,99802.16
2023-05-16T09:52:12.033Z,99809.31
2023-05-16T09:54:38.691Z,99814.13
2023-05-16T09:57:05.369Z,99813.81
2023-05-16T09:59:36.998Z,99819.97
2023-05-16T10:02:05.495Z,99832.09
2023-05-16T10:04:32.075Z,99829.84
2023-05-16T10:06:59.336Z,99839.75
2023-05-16T10:09:26.033Z,99848.59
2023-05-16T10:11:53.674Z,99853.28
2023-05-16T10:14:20.810Z,99851.84
2023-05-16T10:16:51.144Z,99854.31
2023-05-16T10:19:20.740Z,99853.03
2023-05-16T10:21:52.678Z,99855.69
2023-05-16T10:24:29.160Z,99858.69
2023-05-16T10:26:55.758Z,99867.53
2023-05-16T10:29:22.718Z,99860.06
2023-05-16T10:31:49.318Z,99867.56
2023-05-16T10:34:16.868Z,99869.72
2023-05-16T10:36:44.656Z,99877.56
2023-05-16T10:39:12.130Z,99876.22
2023-05-16T10:41:39.063Z,99884.06
2023-05-16T10:44:13.550Z,99872.34
2023-05-16T10:46:40.236Z,99877.22
2023-05-16T10:49:24.350Z,99869.72
2023-05-16T10:52:13.364Z,99867.91
2023-05-16T10:54:42.672Z,99873.16
2023-05-16T10:57:17.706Z,99880.09
2023-05-16T10:59:45.961Z,99880.50
2023-05-16T11:02:24.698Z,99885.91
2023-05-16T11:04:59.582Z,99874.66
2023-05-16T11:07:31.046Z,99882.97
2023-05-16T11:10:08.624Z,99891.13
2023-05-16T11:12:46.037Z,99894.00
2023-05-16T11:15:29.356Z,99893.66
2023-05-16T11:18:09.329Z,99892.75
2023-05-16T11:20:39.940Z,99897.72
2023-05-16T11:23:22.414Z,99904.81
2023-05-16T11:25:52.694Z,99911.44
2023-05-16T11:28:20.099Z,99905.16
2023-05-16T11:30:52.617Z,99910.13
2023-05-16T11:33:19.629Z,99910.25
2023-05-16T11:38:37.088Z,99914.44
2023-05-16T11:41:07.997Z,99916.56
2023-05-16T11:43:45.133Z,99918.97
2023-05-16T11:46:16.237Z,99918.00
2023-05-16T11:48:43.763Z,99918.94
2023-05-16T11:51:10.826Z,99924.78
2023-05-16T11:53:38.424Z,99924.88
2023-05-16T11:56:07.238Z,99923.19
2023-05-16T11:58:33.895Z,99922.78
2023-05-16T12:01:00.430Z,99937.16
2023-05-16T12:03:27.125Z,99930.59
2023-05-16T12:05:55.386Z,99925.97
2023-05-16T12:08:22.658Z,99935.50
2023-05-16T12:10:50.521Z,99915.78
2023-05-16T12:13:20.023Z,99918.41
2023-05-16T12:15:47.899Z,99931.28
2023-05-16T12:18:15.166Z,99925.97
2023-05-16T12:20:43.092Z,99929.34
2023-05-16T12:23:13.104Z,99926.28
2023-05-16T12:25:46.310Z,99932.34
2023-05-16T12:28:13.927Z,99929.09
2023-05-16T12:30:42.912Z,99935.06
2023-05-16T12:33:11.773Z,99932.06
2023-05-16T12:35:39.929Z,99939.41
2023-05-16T12:38:10.985Z,99931.56
2023-05-16T12:40:39.579Z,99934.84
2023-05-16T12:43:16.980Z,99940.72
2023-05-16T12:45:52.898Z,99941.75
2023-05-16T12:48:19.836Z,99950.63
2023-05-16T12:50:46.664Z,99949.03
2023-05-16T12:53:14.141Z,99939.84
2023-05-16T12:55:41.347Z,99940.59
2023-05-16T12:58:08.865Z,99938.97
2023-05-16T13:00:36.634Z,99936.88
2023-05-16T13:03:04.125Z,99933.88
2023-05-16T13:05:30.824Z,99931.31
2023-05-16T13:07:57.386Z,99935.00
2023-05-16T13:10:26.040Z,99932.50
2023-05-16T13:12:53.776Z,99931.47
2023-05-16T13:15:20.383Z,99932.53
2023-05-16T13:17:48.552Z,99939.84
2023-05-16T13:20:15.582Z,99942.59
2023-05-16T13:22:43.865Z,99933.75
2023-05-16T13:25:11.035Z,99937.34
2023-05-16T13:27:37.791Z,99942.56
2023-05-16T13:30:04.936Z,99940.47
2023-05-16T13:32:31.578Z,99933.91
2023-05-16T13:34:58.143Z,99933.28
2023-05-16T13:37:24.740Z,99941.59
2023-05-16T13:39:52.659Z,99946.59
2023-05-16T13:42:19.208Z,99945.38
2023-05-16T13:44:45.881Z,99941.34
2023-05-16T13:47:12.625Z,99941.34
2023-05-16T13:49:39.670Z,99937.84
2023-05-16T13:52:06.714Z,99938.66
2023-05-16T13:54:33.666Z,99936.44
2023-05-16T13:57:00.755Z,99934.91
2023-05-16T13:59:44.700Z,99936.13
2023-05-16T14:02:15.122Z,99948.72
2023-05-16T14:04:41.732Z,99939.16
2023-05-16T14:07:08.264Z,99940.25
2023-05-16T14:09:35.283Z,99937.41
2023-05-16T14:12:05.086Z,99945.97
2023-05-16T14:14:31.970Z,99945.34
2023-05-16T14:16:59.430Z,99939.34
2023-05-16T14:19:28.780Z,99942.56
2023-05-16T14:21:55.738Z,99936.66
2023-05-16T14:24:22.714Z,99936.59
2023-05-16T14:26:49.290Z,99940.38
2023-05-16T14:29:15.825Z,99948.06
2023-05-16T14:31:42.972Z,99940.41
2023-05-16T14:34:09.941Z,99937.28
2023-05-16T14:36:37.152Z,99939.88
2023-05-16T14:39:04.058Z,99939.59
2023-05-16T14:41:30.626Z,99947.19
2023-05-16T14:43:57.185Z,99944.06
2023-05-16T14:46:23.773Z,99939.16
2023-05-16T14:48:51.105Z,99937.72
2023-05-16T14:51:17.898Z,99941.50
2023-05-16T14:53:46.784Z,99932.28
2023-05-16T14:56:13.753Z,99935.41
2023-05-16T14:58:40.686Z,99937.00
2023-05-16T15:01:07.332Z,99949.91
2023-05-16T15:03:46.747Z,99943.06
2023-05-16T15:06:13.879Z,99939.81
2023-05-16T15:08:40.659Z,99944.59
2023-05-16T15:11:07.417Z,99933.78
2023-05-16T15:13:34.094Z,99940.47
2023-05-16T15:16:00.837Z,99938.78
2023-05-16T15:18:27.391Z,99933.56
2023-05-16T15:20:54.180Z,99936.66
2023-05-16T15:23:20.876Z,99934.34
2023-05-16T15:25:47.384Z,99938.56
2023-05-16T15:28:13.861Z,99934.03
2023-05-16T15:30:40.434Z,99939.34
2023-05-16T15:33:07.017Z,99939.75
2023-05-16T15:35:33.692Z,99944.44
2023-05-16T15:38:00.233Z,99942.50
2023-05-16T15:40:27.426Z,99947.75
2023-05-16T15:42:54.069Z,99943.78
2023-05-16T15:45:21.019Z,99937.19
2023-05-16T15:47:47.717Z,99943.53
2023-05-16T15:50:14.352Z,99940.09
2023-05-16T15:52:41.087Z,99941.59
2023-05-16T15:55:07.948Z,99940.56
2023-05-16T15:57:34.809Z,99939.59
2023-05-16T16:00:01.388Z,99945.41
2023-05-16T16:02:27.994Z,99938.56
2023-05-16T16:04:54.677Z,99935.66
2023-05-16T16:07:21.272Z,99939.03
2023-05-16T16:09:47.759Z,99932.50
2023-05-16T16:12:14.292Z,99936.25
2023-05-16T16:14:41.267Z,99930.75
2023-05-16T16:17:07.788Z,99925.94
2023-05-16T16:19:34.293Z,99924.91
2023-05-16T16:22:00.802Z,99918.19
2023-05-16T16:24:27.348Z,99933.38
2023-05-16T16:26:53.874Z,99931.25
2023-05-16T16:29:20.591Z,99924.91
2023-05-16T16:31:47.336Z,99935.69
2023-05-16T16:34:14.084Z,99929.78
2023-05-16T16:36:40.961Z,99931.69
2023-05-16T16:39:07.488Z,99927.47
2023-05-16T16:41:34.013Z,99934.22
2023-05-16T16:44:00.557Z,99921.13
2023-05-16T16:46:27.396Z,99930.00
2023-05-16T16:48:54.750Z,99938.00
2023-05-16T16:51:21.498Z,99942.41
2023-05-16T16:53:48.035Z,99939.06
2023-05-16T16:56:14.556Z,99942.41
2023-05-16T16:58:41.685Z,99940.72
2023-05-16T17:01:08.235Z,99943.41
2023-05-16T17:03:35.074Z,99932.88
2023-05-16T17:06:01.670Z,99935.88
2023-05-16T17:08:28.230Z,99935.19
2023-05-16T17:10:54.801Z,99937.31
2023-05-16T17:13:21.701Z,99937.47
2023-05-16T17:15:48.181Z,99936.03
2023-05-16T17:18:14.940Z,99938.78
2023-05-16T17:20:41.505Z,99941.06
2023-05-16T17:23:07.991Z,99942.97
2023-05-16T17:25:34.613Z,99951.38
2023-05-16T17:28:01.160Z,99955.34
2023-05-16T17:30:27.631Z,99961.03
2023-05-16T17:32:54.232Z,99955.97
2023-05-16T17:35:20.851Z,99963.78
2023-05-16T17:37:47.806Z,99965.03
2023-05-16T17:40:17.142Z,99961.69
2023-05-16T17:42:44.861Z,99961.69
2023-05-16T17:45:12.977Z,99963.75
2023-05-16T17:47:40.048Z,99963.47
2023-05-16T17:50:09.548Z,99963.03
2023-05-16T17:52:37.942Z,99951.63
2023-05-16T17:55:05.813Z,99956.84
2023-05-16T17:57:33.940Z,99964.63
2023-05-16T18:00:00.807Z,99975.72
2023-05-16T18:02:27.393Z,99967.91
2023-05-16T18:04:53.966Z,99976.78
2023-05-16T18:07:20.568Z,99979.72
2023-05-16T18:09:47.111Z,99976.53
2023-05-16T18:12:13.717Z,99980.50
2023-05-16T18:14:40.750Z,99983.97
2023-05-16T18:17:09.043Z,99975.72
2023-05-16T18:19:36.006Z,99976.38
2023-05-16T18:22:06.949Z,99982.66
2023-05-16T18:24:34.555Z,99981.84
2023-05-16T18:27:01.929Z,99980.34
2023-05-16T18:29:28.457Z,99982.00
2023-05-16T18:31:55.327Z,99987.38
2023-05-16T18:34:21.846Z,99986.47
2023-05-16T18:36:48.949Z,99980.28
2023-05-16T18:39:15.626Z,99985.28
2023-05-16T18:41:46.512Z,99987.44
2023-05-16T18:44:13.342Z,99986.97
2023-05-16T18:46:39.851Z,99988.59
2023-05-16T18:49:06.427Z,99987.09
2023-05-16T18:51:35.468Z,99988.28
2023-05-16T18:54:04.993Z,99994.72
2023-05-16T18:56:32.058Z,99994.84
2023-05-16T18:58:58.631Z,99987.50
2023-05-16T19:01:25.454Z,99982.69
2023-05-16T19:03:52.144Z,99983.03
2023-05-16T19:06:18.762Z,99993.47
2023-05-16T19:08:47.999Z,99986.72
2023-05-16T19:11:15.571Z,99985.88
2023-05-16T19:13:42.170Z,99980.88
2023-05-16T19:16:08.985Z,99980.41
2023-05-16T19:18:35.862Z,99986.34
2023-05-16T19:21:03.479Z,99985.50
2023-05-16T19:23:30.600Z,99989.50
2023-05-16T19:25:57.090Z,99988.69
2023-05-16T19:28:24.723Z,99997.03
2023-05-16T19:30:51.415Z,99985.50
2023-05-16T19:33:18.329Z,99997.19
2023-05-16T19:35:45.763Z,99999.41
2023-05-16T19:38:12.388Z,99998.22
2023-05-16T19:40:38.946Z,99993.81
2023-05-16T19:43:05.746Z,100002.44
2023-05-16T19:45:32.444Z,99996.13
2023-05-16T19:47:59.096Z,100001.31
2023-05-16T19:50:26.303Z,100003.84
2023-05-16T19:52:53.076Z,100005.94
2023-05-16T19:55:19.695Z,100004.41
2023-05-16T19:57:46.715Z,100007.34
2023-05-16T20:00:14.185Z,99997.44
2023-05-16T20:02:42.950Z,100003.31
2023-05-16T20:05:09.912Z,100002.00
2023-05-16T20:07:36.607Z,100004.44
2023-05-16T20:10:03.210Z,100002.75
2023-05-16T20:12:29.685Z,99997.22
2023-05-16T20:14:56.190Z,99999.75
2023-05-16T20:17:22.711Z,100009.34
2023-05-16T20:19:49.241Z,100005.13
2023-05-16T20:22:15.885Z,100002.97
2023-05-16T20:24:42.577Z,100002.91
2023-05-16T20:27:09.081Z,100000.06
2023-05-16T20:29:35.984Z,100002.59
2023-05-16T20:32:03.972Z,100006.19
2023-05-16T20:34:31.759Z,100001.56
2023-05-16T20:36:58.514Z,99991.22
2023-05-16T20:39:28.904Z,100000.28
2023-05-16T20:41:55.559Z,99999.03
2023-05-16T20:44:22.074Z,100009.47
2023-05-16T20:46:48.603Z,100006.50
2023-05-16T20:49:15.118Z,100007.06
2023-05-16T20:51:42.564Z,100009.78
2023-05-16T20:54:09.099Z,100007.31
2023-05-16T20:56:35.754Z,100007.13
2023-05-16T20:59:02.266Z,100011.63
2023-05-16T21:01:29.326Z,100020.22
2023-05-16T21:03:55.949Z,100017.56
2023-05-16T21:06:22.706Z,100018.34
2023-05-16T21:08:49.326Z,100022.38
2023-05-16T21:11:15.828Z,100018.81
2023-05-16T21:13:42.527Z,100022.63
2023-05-16T21:16:09.175Z,100025.91
2023-05-16T21:18:35.769Z,100021.34
2023-05-16T21:21:02.394Z,100020.88
2023-05-16T21:23:28.878Z,100023.59
2023-05-16T21:25:55.431Z,100021.41
2023-05-16T21:28:21.997Z,100019.44
2023-05-16T21:30:48.636Z,100021.50
2023-05-16T21:33:15.214Z,100020.00
2023-05-16T21:35:41.791Z,100024.03
2023-05-16T21:38:08.314Z,100014.75
2023-05-16T21:40:34.823Z,100018.50
2023-05-16T21:43:01.289Z,100023.75
2023-05-16T21:45:28.174Z,100010.88
2023-05-16T21:47:54.883Z,100018.50
2023-05-16T21:50:21.680Z,100017.63
2023-05-16T21:52:48.217Z,100009.19
2023-05-16T21:55:15.300Z,100020.06
2023-05-16T21:57:41.900Z,100014.81
2023-05-16T22:00:09.818Z,100029.84
2023-05-16T22:02:37.029Z,100023.91
2023-05-16T22:05:04.306Z,100018.22
2023-05-16T22:07:31.612Z,100016.59
2023-05-16T22:09:59.310Z,100019.16
2023-05-16T22:12:26.935Z,100018.47
2023-05-16T22:14:53.700Z,100019.69
2023-05-16T22:17:20.500Z,100021.75
2023-05-16T22:19:47.088Z,100023.84
2023-05-16T22:22:13.674Z,100014.19
2023-05-16T22:24:40.350Z,100020.47
2023-05-16T22:27:06.951Z,100025.22
2023-05-16T22:29:38.248Z,100022.91
2023-05-16T22:32:08.936Z,100023.78
2023-05-16T22:34:36.358Z,100024.34
2023-05-16T22:37:02.876Z,100023.50
2023-05-16T22:39:29.416Z,100026.41
2023-05-16T22:41:55.943Z,100021.75
2023-05-16T22:44:22.486Z,100026.84
2023-05-16T22:46:49.103Z,100032.69
2023-05-16T22:49:16.290Z,100031.13
2023-05-16T22:51:42.883Z,100032.44
2023-05-16T22:54:09.567Z,100035.72
2023-05-16T22:56:36.207Z,100028.22
2023-05-16T22:59:02.685Z,100039.41
2023-05-16T23:01:29.303Z,100032.50
2023-05-16T23:03:56.009Z,100039.84
2023-05-16T23:06:22.627Z,100031.00
2023-05-16T23:08:49.162Z,100023.63
2023-05-16T23:11:15.714Z,100028.34
2023-05-16T23:13:42.257Z,100027.03
2023-05-16T23:16:08.868Z,100023.97
2023-05-16T23:18:35.753Z,100026.06
2023-05-16T23:21:02.446Z,100027.56
2023-05-16T23:23:29.120Z,100019.16
2023-05-16T23:25:55.733Z,100021.38
2023-05-16T23:28:22.558Z,100028.75
2023-05-16T23:30:49.088Z,100032.19
2023-05-16T23:33:15.703Z,100028.47
2023-05-16T23:35:42.396Z,100023.22
2023-05-16T23:38:09.070Z,100017.78
2023-05-16T23:40:35.549Z,100020.84
2023-05-16T23:43:02.039Z,100014.09
2023-05-16T23:45:30.287Z,100017.09
2023-05-16T23:47:56.999Z,100023.41
2023-05-16T23:50:23.799Z,100012.44
2023-05-16T23:52:50.408Z,100018.28
2023-05-16T23:55:16.914Z,100014.84
2023-05-16T23:57:43.592Z,100016.88
